Cedar Beach, Vermont
Current Conditions -  °F | °C
As of 6:54 AM on Sunday 21 Dec 2014 (Local Time) from KBTV Reporting Station
Overcast Overcast  
Wind Chill: 18°   Ceiling: 400
Heat Index: 18°   Visibility: 10mi
Dew Point: 13°   Wind: 0mph
Humidity: 81%   Direction: NA
Pressure: 30.35"   Gusts: NA
Location:  44.3105°N, 73.222°W
Report Text: KBTV 211154Z 00000KT 10SM OVC004 M08/M11 A3035 RMK AO2 SLP284 4/007 I6000 T10781106 11072 21089 53007
Loading
Personal Weather Stations






























Interactive Weather Map New forecast layout! Learn more

10-Day Weather Forecast

Advertisements
Track Severe Weather on mobile